Thomson Dream — 9HA2381 — position and weather

sailwx.info

Track history (hours):
 
Tides and Currents Weather Stations Pressure Air Temp Water Temp Dewpoint Dewpoint Depression Visibility Wind Speed Wind Dir Waves Ship Positions

Thomson Dream

Last reported at 2014-Aug-31 20:33 UTC. Time now 2014-Sep-01 21:02 UTC.
Position N 38°17' E 010°13'.

Length 243 m; draft 7.6 m.

Type: Ship. MMSI: 248480975.

Date/timePositionNaut miles runAvg speedWind from/ knotsBaromVisibWave heightAir tempDewpointWater temp
2014-Aug-31 20:33N 38°17' E 010°13'1716.8
2014-Aug-31 19:33N 38°19' E 009°52'1716.9
2014-Aug-31 18:33N 38°21' E 009°30'1717.1
2014-Aug-31 17:33N 38°24' E 009°09'1717.0
2014-Aug-31 16:33N 38°26' E 008°47'1716.9
2014-Aug-31 15:33N 38°29' E 008°26'1716.7
2014-Aug-31 14:33N 38°31' E 008°05'16714.9
2014-Aug-31 03:23N 38°53' E 004°33'1416.0
2014-Aug-31 02:32N 38°54' E 004°16'1615.9
2014-Aug-31 01:33N 38°56' E 003°56'1615.9
2014-Aug-31 00:33N 38°58' E 003°36'1616.0
2014-Aug-30 23:33N 39°02' E 003°16'1616.0
2014-Aug-30 22:33N 39°04' E 002°55'1414.4
2014-Aug-30 21:33N 39°16' E 002°45'1616.2
2014-Aug-30 20:33N 39°32' E 002°39'2 1.8
2014-Aug-30 19:32N 39°33' E 002°38'0 0.0
2014-Aug-30 18:32N 39°33' E 002°38'0 0.0
2014-Aug-30 17:32N 39°33' E 002°38'0 0.0
2014-Aug-30 07:32N 39°33' E 002°38'0 0.0
2014-Aug-30 06:32N 39°33' E 002°38'0 0.0
2014-Aug-30 05:32N 39°33' E 002°38'0 0.0
2014-Aug-30 04:32N 39°33' E 002°38'0 0.2
2014-Aug-30 03:33N 39°33' E 002°38'8 8.0
2014-Aug-30 02:33N 39°26' E 002°34'1010.5
2014-Aug-30 01:33N 39°28' E 002°21'1111.0
2014-Aug-30 00:33N 39°38' E 002°14'1111.4
2014-Aug-29 23:33N 39°49' E 002°14'1111.2
2014-Aug-29 22:33N 40°01' E 002°13'1111.5
2014-Aug-29 21:33N 40°12' E 002°12'1111.5
2014-Aug-29 20:33N 40°24' E 002°11'1111.3
2014-Aug-29 19:33N 40°35' E 002°11'1414.1
2014-Aug-29 18:33N 40°49' E 002°12'1616.4
2014-Aug-29 17:34N 41°05' E 002°11'1514.7
2014-Aug-29 16:33N 41°20' E 002°12'2 2.1
2014-Aug-29 15:23N 41°22' E 002°11'0 0.0
2014-Aug-29 14:32N 41°22' E 002°11'0 0.0
2014-Aug-29 12:29N 41°22' E 002°11'0 0.0
2014-Aug-29 11:32N 41°22' E 002°11'0 0.0
2014-Aug-29 10:32N 41°22' E 002°11'0 0.0
2014-Aug-29 09:23N 41°22' E 002°11'0 0.0
2014-Aug-29 08:32N 41°22' E 002°11'0 0.0
2014-Aug-29 07:33N 41°22' E 002°11'5 5.4
2014-Aug-29 06:33N 41°21' E 002°18'1413.8
2014-Aug-29 05:33N 41°26' E 002°35'1212.4
2014-Aug-29 04:33N 41°33' E 002°49'1211.9
2014-Aug-29 03:33N 41°37' E 003°03'1212.3
2014-Aug-29 02:33N 41°43' E 003°18'1413.8
2014-Aug-29 01:32N 41°50' E 003°34'1817.5
2014-Aug-29 00:30N 41°58' E 003°56'1617.4
2014-Aug-28 23:33N 42°06' E 004°15'1817.0
2014-Aug-28 22:31N 42°14' E 004°37'1717.7
2014-Aug-28 21:32N 42°21' E 004°58'1817.3
2014-Aug-28 20:31N 42°30' E 005°19'1617.0
2014-Aug-28 19:33N 42°37' E 005°39'1817.7
2014-Aug-28 18:33N 42°45' E 006°00'1818.4
2014-Aug-28 17:33N 42°53' E 006°23'1817.9
2014-Aug-28 16:33N 43°04' E 006°42'1616.2
2014-Aug-28 15:33N 43°20' E 006°47'5 4.4
2014-Aug-28 14:27N 43°25' E 006°46'0 0.0
2014-Aug-28 13:33N 43°25' E 006°46'0 0.1
2014-Aug-28 12:33N 43°25' E 006°46'0 0.1
2014-Aug-28 11:33N 43°25' E 006°46'0 0.0
2014-Aug-28 10:33N 43°25' E 006°46'0 0.0
2014-Aug-28 09:33N 43°25' E 006°46'0 0.0
2014-Aug-28 08:33N 43°25' E 006°46'0 0.0
2014-Aug-28 07:33N 43°25' E 006°46'0 0.0
2014-Aug-28 06:33N 43°25' E 006°46'0 0.0
2014-Aug-28 05:33N 43°25' E 006°46'0 0.0
2014-Aug-28 04:34N 43°25' E 006°46'8 8.3
2014-Aug-28 03:33N 43°23' E 006°57'1717.1
2014-Aug-28 02:33N 43°24' E 007°21'5217.0
2014-Aug-27 23:31N 43°27' E 008°32'1916.6
2014-Aug-27 22:23N 43°30' E 008°57'1316.0
2014-Aug-27 21:33N 43°31' E 009°15'1615.8
2014-Aug-27 20:33N 43°31' E 009°37'1615.9
2014-Aug-27 19:33N 43°31' E 009°59'1313.2
2014-Aug-27 18:33N 43°32' E 010°17'1 0.9
2014-Aug-27 17:32N 43°33' E 010°18'0 0.0
2014-Aug-27 16:32N 43°33' E 010°18'0 0.0
2014-Aug-27 15:32N 43°33' E 010°18'0 0.0
2014-Aug-27 14:32N 43°33' E 010°18'0 0.0
2014-Aug-27 13:32N 43°33' E 010°18'0 0.0
2014-Aug-27 12:32N 43°33' E 010°18'0 0.0
2014-Aug-27 11:32N 43°33' E 010°18'0 0.0
2014-Aug-27 10:32N 43°33' E 010°18'0 0.0
2014-Aug-27 09:32N 43°33' E 010°18'0 0.0
2014-Aug-27 08:32N 43°33' E 010°18'0 0.0
2014-Aug-27 07:29N 43°33' E 010°18'0 0.0
2014-Aug-27 06:32N 43°33' E 010°18'0 0.0
2014-Aug-27 05:32N 43°33' E 010°18'1 1.3
2014-Aug-27 04:33N 43°32' E 010°17'1111.3
2014-Aug-27 03:33N 43°22' E 010°11'1212.0
2014-Aug-27 02:33N 43°10' E 010°07'1211.7
2014-Aug-27 01:33N 42°59' E 010°04'1212.0
2014-Aug-27 00:33N 42°47' E 010°02'1312.0
2014-Aug-26 23:26N 42°38' E 010°15'1312.4
2014-Aug-26 22:23N 42°30' E 010°29'3812.1
2014-Aug-26 19:16N 42°09' E 011°12'118 4.3
2014-Aug-25 15:33N 41°39' E 008°38'35 2.4
2014-Aug-25 01:04N 41°29' E 007°54'811.4
2014-Aug-25 00:23N 41°24' E 007°45'1511.2
2014-Aug-24 23:04N 41°16' E 007°29'2211.2
2014-Aug-24 21:06N 41°04' E 007°05'17511.2
2014-Aug-24 05:33N 39°30' E 003°51'1110.6
2014-Aug-24 04:33N 39°25' E 003°40'1010.5
2014-Aug-24 03:33N 39°19' E 003°28'1010.4
2014-Aug-24 02:33N 39°14' E 003°17'1211.7
2014-Aug-24 01:33N 39°07' E 003°04'1010.1
2014-Aug-24 00:33N 39°07' E 002°51'1111.2
2014-Aug-23 23:33N 39°17' E 002°44'1211.6
2014-Aug-23 22:33N 39°28' E 002°40'5 5.2
2014-Aug-23 21:33N 39°33' E 002°38'0 0.0
2014-Aug-23 20:31N 39°33' E 002°38'0 0.0
2014-Aug-23 19:31N 39°33' E 002°38'0 0.0
2014-Aug-23 03:34N 39°33' E 002°38'10 9.5
2014-Aug-23 02:33N 39°25' E 002°33'1414.4
2014-Aug-23 01:33N 39°13' E 002°22'1111.4
2014-Aug-23 00:33N 39°05' E 002°12'1211.8
2014-Aug-22 23:33N 38°56' E 002°02'1716.3
2014-Aug-22 22:33N 38°43' E 001°48'1616.1
2014-Aug-22 21:33N 38°33' E 001°32'1616.5
2014-Aug-22 20:33N 38°25' E 001°14'1716.8
2014-Aug-22 19:34N 38°16' E 000°56'1716.7
2014-Aug-22 18:34N 38°07' E 000°39'1716.6
2014-Aug-22 17:33N 37°58' E 000°21'1916.5
2014-Aug-22 16:26N 37°48' E 000°01'1416.3
2014-Aug-22 15:33N 37°40' W 000°14'1616.0
2014-Aug-22 14:33N 37°31' W 000°30'1514.8
2014-Aug-22 13:33N 37°31' W 000°49'9 1.1
2014-Aug-22 05:18N 37°35' W 000°59'6 8.1
2014-Aug-22 04:33N 37°30' W 001°02'1815.2
2014-Aug-22 03:21N 37°16' W 001°17'1111.8
2014-Aug-22 02:27N 37°08' W 001°25'1011.0
2014-Aug-22 01:33N 36°60' W 001°32'1211.9
2014-Aug-22 00:33N 36°50' W 001°41'1816.2
2014-Aug-21 23:25N 36°35' W 001°55'1616.1
2014-Aug-21 22:25N 36°24' W 002°09'1416.2
2014-Aug-21 21:32N 36°21' W 002°26'  
Track history (hours):
 
Tides and Currents Weather Stations Pressure Air Temp Water Temp Dewpoint Dewpoint Depression Visibility Wind Speed Wind Dir Waves Ship Positions

Thomson Dream

Last reported at 2014-Aug-31 20:33 UTC. Time now 2014-Sep-01 21:02 UTC.
Position N 38°17' E 010°13'.

Length 243 m; draft 7.6 m.

Type: Ship. MMSI: 248480975.

Date/timePositionNaut miles runAvg speedWind from/ knotsBaromVisibWave heightAir tempDewpointWater temp
2014-Aug-31 20:33N 38°17' E 010°13'1716.8
2014-Aug-31 19:33N 38°19' E 009°52'1716.9
2014-Aug-31 18:33N 38°21' E 009°30'1717.1
2014-Aug-31 17:33N 38°24' E 009°09'1717.0
2014-Aug-31 16:33N 38°26' E 008°47'1716.9
2014-Aug-31 15:33N 38°29' E 008°26'1716.7
2014-Aug-31 14:33N 38°31' E 008°05'16714.9
2014-Aug-31 03:23N 38°53' E 004°33'1416.0
2014-Aug-31 02:32N 38°54' E 004°16'1615.9
2014-Aug-31 01:33N 38°56' E 003°56'1615.9
2014-Aug-31 00:33N 38°58' E 003°36'1616.0
2014-Aug-30 23:33N 39°02' E 003°16'1616.0
2014-Aug-30 22:33N 39°04' E 002°55'1414.4
2014-Aug-30 21:33N 39°16' E 002°45'1616.2
2014-Aug-30 20:33N 39°32' E 002°39'2 1.8
2014-Aug-30 19:32N 39°33' E 002°38'0 0.0
2014-Aug-30 18:32N 39°33' E 002°38'0 0.0
2014-Aug-30 17:32N 39°33' E 002°38'0 0.0
2014-Aug-30 07:32N 39°33' E 002°38'0 0.0
2014-Aug-30 06:32N 39°33' E 002°38'0 0.0
2014-Aug-30 05:32N 39°33' E 002°38'0 0.0
2014-Aug-30 04:32N 39°33' E 002°38'0 0.2
2014-Aug-30 03:33N 39°33' E 002°38'8 8.0
2014-Aug-30 02:33N 39°26' E 002°34'1010.5
2014-Aug-30 01:33N 39°28' E 002°21'1111.0
2014-Aug-30 00:33N 39°38' E 002°14'1111.4
2014-Aug-29 23:33N 39°49' E 002°14'1111.2
2014-Aug-29 22:33N 40°01' E 002°13'1111.5
2014-Aug-29 21:33N 40°12' E 002°12'1111.5
2014-Aug-29 20:33N 40°24' E 002°11'1111.3
2014-Aug-29 19:33N 40°35' E 002°11'1414.1
2014-Aug-29 18:33N 40°49' E 002°12'1616.4
2014-Aug-29 17:34N 41°05' E 002°11'1514.7
2014-Aug-29 16:33N 41°20' E 002°12'2 2.1
2014-Aug-29 15:23N 41°22' E 002°11'0 0.0
2014-Aug-29 14:32N 41°22' E 002°11'0 0.0
2014-Aug-29 12:29N 41°22' E 002°11'0 0.0
2014-Aug-29 11:32N 41°22' E 002°11'0 0.0
2014-Aug-29 10:32N 41°22' E 002°11'0 0.0
2014-Aug-29 09:23N 41°22' E 002°11'0 0.0
2014-Aug-29 08:32N 41°22' E 002°11'0 0.0
2014-Aug-29 07:33N 41°22' E 002°11'5 5.4
2014-Aug-29 06:33N 41°21' E 002°18'1413.8
2014-Aug-29 05:33N 41°26' E 002°35'1212.4
2014-Aug-29 04:33N 41°33' E 002°49'1211.9
2014-Aug-29 03:33N 41°37' E 003°03'1212.3
2014-Aug-29 02:33N 41°43' E 003°18'1413.8
2014-Aug-29 01:32N 41°50' E 003°34'1817.5
2014-Aug-29 00:30N 41°58' E 003°56'1617.4
2014-Aug-28 23:33N 42°06' E 004°15'1817.0
2014-Aug-28 22:31N 42°14' E 004°37'1717.7
2014-Aug-28 21:32N 42°21' E 004°58'1817.3
2014-Aug-28 20:31N 42°30' E 005°19'1617.0
2014-Aug-28 19:33N 42°37' E 005°39'1817.7
2014-Aug-28 18:33N 42°45' E 006°00'1818.4
2014-Aug-28 17:33N 42°53' E 006°23'1817.9
2014-Aug-28 16:33N 43°04' E 006°42'1616.2
2014-Aug-28 15:33N 43°20' E 006°47'5 4.4
2014-Aug-28 14:27N 43°25' E 006°46'0 0.0
2014-Aug-28 13:33N 43°25' E 006°46'0 0.1
2014-Aug-28 12:33N 43°25' E 006°46'0 0.1
2014-Aug-28 11:33N 43°25' E 006°46'0 0.0
2014-Aug-28 10:33N 43°25' E 006°46'0 0.0
2014-Aug-28 09:33N 43°25' E 006°46'0 0.0
2014-Aug-28 08:33N 43°25' E 006°46'0 0.0
2014-Aug-28 07:33N 43°25' E 006°46'0 0.0
2014-Aug-28 06:33N 43°25' E 006°46'0 0.0
2014-Aug-28 05:33N 43°25' E 006°46'0 0.0
2014-Aug-28 04:34N 43°25' E 006°46'8 8.3
2014-Aug-28 03:33N 43°23' E 006°57'1717.1
2014-Aug-28 02:33N 43°24' E 007°21'5217.0
2014-Aug-27 23:31N 43°27' E 008°32'1916.6
2014-Aug-27 22:23N 43°30' E 008°57'1316.0
2014-Aug-27 21:33N 43°31' E 009°15'1615.8
2014-Aug-27 20:33N 43°31' E 009°37'1615.9
2014-Aug-27 19:33N 43°31' E 009°59'1313.2
2014-Aug-27 18:33N 43°32' E 010°17'1 0.9
2014-Aug-27 17:32N 43°33' E 010°18'0 0.0
2014-Aug-27 16:32N 43°33' E 010°18'0 0.0
2014-Aug-27 15:32N 43°33' E 010°18'0 0.0
2014-Aug-27 14:32N 43°33' E 010°18'0 0.0
2014-Aug-27 13:32N 43°33' E 010°18'0 0.0
2014-Aug-27 12:32N 43°33' E 010°18'0 0.0
2014-Aug-27 11:32N 43°33' E 010°18'0 0.0
2014-Aug-27 10:32N 43°33' E 010°18'0 0.0
2014-Aug-27 09:32N 43°33' E 010°18'0 0.0
2014-Aug-27 08:32N 43°33' E 010°18'0 0.0
2014-Aug-27 07:29N 43°33' E 010°18'0 0.0
2014-Aug-27 06:32N 43°33' E 010°18'0 0.0
2014-Aug-27 05:32N 43°33' E 010°18'1 1.3
2014-Aug-27 04:33N 43°32' E 010°17'1111.3
2014-Aug-27 03:33N 43°22' E 010°11'1212.0
2014-Aug-27 02:33N 43°10' E 010°07'1211.7
2014-Aug-27 01:33N 42°59' E 010°04'1212.0
2014-Aug-27 00:33N 42°47' E 010°02'1312.0
2014-Aug-26 23:26N 42°38' E 010°15'1312.4
2014-Aug-26 22:23N 42°30' E 010°29'3812.1
2014-Aug-26 19:16N 42°09' E 011°12'118 4.3
2014-Aug-25 15:33N 41°39' E 008°38'35 2.4
2014-Aug-25 01:04N 41°29' E 007°54'811.4
2014-Aug-25 00:23N 41°24' E 007°45'1511.2
2014-Aug-24 23:04N 41°16' E 007°29'2211.2
2014-Aug-24 21:06N 41°04' E 007°05'17511.2
2014-Aug-24 05:33N 39°30' E 003°51'1110.6
2014-Aug-24 04:33N 39°25' E 003°40'1010.5
2014-Aug-24 03:33N 39°19' E 003°28'1010.4
2014-Aug-24 02:33N 39°14' E 003°17'1211.7
2014-Aug-24 01:33N 39°07' E 003°04'1010.1
2014-Aug-24 00:33N 39°07' E 002°51'1111.2
2014-Aug-23 23:33N 39°17' E 002°44'1211.6
2014-Aug-23 22:33N 39°28' E 002°40'5 5.2
2014-Aug-23 21:33N 39°33' E 002°38'0 0.0
2014-Aug-23 20:31N 39°33' E 002°38'0 0.0
2014-Aug-23 19:31N 39°33' E 002°38'0 0.0
2014-Aug-23 03:34N 39°33' E 002°38'10 9.5
2014-Aug-23 02:33N 39°25' E 002°33'1414.4
2014-Aug-23 01:33N 39°13' E 002°22'1111.4
2014-Aug-23 00:33N 39°05' E 002°12'1211.8
2014-Aug-22 23:33N 38°56' E 002°02'1716.3
2014-Aug-22 22:33N 38°43' E 001°48'1616.1
2014-Aug-22 21:33N 38°33' E 001°32'1616.5
2014-Aug-22 20:33N 38°25' E 001°14'1716.8
2014-Aug-22 19:34N 38°16' E 000°56'1716.7
2014-Aug-22 18:34N 38°07' E 000°39'1716.6
2014-Aug-22 17:33N 37°58' E 000°21'1916.5
2014-Aug-22 16:26N 37°48' E 000°01'1416.3
2014-Aug-22 15:33N 37°40' W 000°14'1616.0
2014-Aug-22 14:33N 37°31' W 000°30'1514.8
2014-Aug-22 13:33N 37°31' W 000°49'9 1.1
2014-Aug-22 05:18N 37°35' W 000°59'6 8.1
2014-Aug-22 04:33N 37°30' W 001°02'1815.2
2014-Aug-22 03:21N 37°16' W 001°17'1111.8
2014-Aug-22 02:27N 37°08' W 001°25'1011.0
2014-Aug-22 01:33N 36°60' W 001°32'1211.9
2014-Aug-22 00:33N 36°50' W 001°41'1816.2
2014-Aug-21 23:25N 36°35' W 001°55'1616.1
2014-Aug-21 22:25N 36°24' W 002°09'1416.2
2014-Aug-21 21:32N 36°21' W 002°26'  

Dump ship's entire track history